Time;durP1;ratioP1;P1;durP2;ratioP2;P2;SDS_P1;SDS_P2;PMS_P1;PMS_P2;Temp;Humidity;BMP_temperature;BMP_pressure;BME280_temperature;BME280_humidity;BME280_pressure;Samples;Min_cycle;Max_cycle;Signal;HPM_P1;HPM_P2
2021/03/02 00:00:30;;;;;;;39.15;20.35;;;;;;;;;;5115012;28;20603;-63
2021/03/02 00:02:58;;;;;;;38.13;18.55;;;;;;;;;;5114737;28;20200;-64
2021/03/02 00:05:24;;;;;;;34.15;21.58;;;;;;;;;;5114679;28;20677;-62
2021/03/02 00:07:51;;;;;;;32.90;18.92;;;;;;;;;;5114340;28;20232;-62
2021/03/02 00:10:18;;;;;;;34.08;18.42;;;;;;;;;;5114551;28;20189;-63
2021/03/02 00:12:45;;;;;;;31.60;18.60;;;;;;;;;;5114449;28;20210;-62
2021/03/02 00:15:13;;;;;;;31.65;18.83;;;;;;;;;;5115153;28;20287;-63
2021/03/02 00:17:46;;;;;;;30.42;18.35;;;;;;;;;;5114918;28;20245;-63
2021/03/02 00:20:14;;;;;;;38.03;20.70;;;;;;;;;;5114201;28;20181;-63
2021/03/02 00:22:45;;;;;;;31.65;18.35;;;;;;;;;;5114021;28;20284;-63
2021/03/02 00:25:13;;;;;;;36.22;19.48;;;;;;;;;;5114593;28;20220;-63
2021/03/02 00:27:39;;;;;;;26.90;17.10;;;;;;;;;;5113992;28;20276;-63
2021/03/02 00:30:07;;;;;;;36.63;19.77;;;;;;;;;;5114302;28;20224;-62
2021/03/02 00:32:34;;;;;;;37.00;20.05;;;;;;;;;;5113919;28;20236;-62
2021/03/02 00:35:01;;;;;;;33.65;18.65;;;;;;;;;;5114281;28;20234;-63
2021/03/02 00:37:28;;;;;;;39.38;19.88;;;;;;;;;;5114259;28;20322;-62
2021/03/02 00:39:55;;;;;;;36.22;19.00;;;;;;;;;;5114175;28;20334;-62
2021/03/02 00:42:21;;;;;;;33.80;18.15;;;;;;;;;;5113868;28;20283;-62
2021/03/02 00:44:48;;;;;;;35.00;19.58;;;;;;;;;;5113987;28;20249;-63
2021/03/02 00:47:15;;;;;;;38.58;19.85;;;;;;;;;;5113987;28;20287;-62
2021/03/02 00:49:42;;;;;;;32.58;19.50;;;;;;;;;;5114097;28;20261;-62
2021/03/02 00:52:09;;;;;;;33.28;19.02;;;;;;;;;;5114044;28;20556;-63
2021/03/02 00:54:36;;;;;;;30.90;18.33;;;;;;;;;;5113669;28;20288;-62
2021/03/02 00:57:03;;;;;;;30.63;17.67;;;;;;;;;;5114049;28;20531;-64
2021/03/02 00:59:29;;;;;;;34.85;18.55;;;;;;;;;;5117820;28;20189;-62
2021/03/02 01:01:56;;;;;;;32.40;20.13;;;;;;;;;;5118157;28;20292;-61
2021/03/02 01:04:23;;;;;;;33.25;17.98;;;;;;;;;;5118463;28;20232;-63
2021/03/02 01:06:50;;;;;;;36.97;19.83;;;;;;;;;;5118582;28;20749;-62
2021/03/02 01:09:17;;;;;;;30.02;17.27;;;;;;;;;;5117795;28;20193;-62
2021/03/02 01:11:43;;;;;;;28.85;18.48;;;;;;;;;;5117741;28;20197;-63
2021/03/02 01:14:10;;;;;;;34.47;18.65;;;;;;;;;;5118012;28;20262;-63
2021/03/02 01:16:37;;;;;;;31.48;17.80;;;;;;;;;;5118037;28;20196;-62
2021/03/02 01:19:04;;;;;;;32.33;18.75;;;;;;;;;;5118132;28;20323;-62
2021/03/02 01:21:30;;;;;;;33.05;18.90;;;;;;;;;;5117577;28;20844;-62
2021/03/02 01:23:58;;;;;;;28.70;18.25;;;;;;;;;;5117769;28;20256;-63
2021/03/02 01:26:24;;;;;;;32.95;17.27;;;;;;;;;;5117784;28;20200;-63
2021/03/02 01:28:51;;;;;;;33.20;18.60;;;;;;;;;;5117424;28;20188;-63
2021/03/02 01:31:18;;;;;;;35.85;19.63;;;;;;;;;;5117906;28;20280;-63
2021/03/02 01:33:45;;;;;;;35.40;19.15;;;;;;;;;;5117626;28;20237;-63
2021/03/02 01:36:11;;;;;;;35.63;20.85;;;;;;;;;;5117251;28;20200;-63
2021/03/02 01:38:39;;;;;;;33.47;19.45;;;;;;;;;;5117248;28;20245;-63
2021/03/02 01:41:06;;;;;;;34.55;19.73;;;;;;;;;;5117463;28;20193;-63
2021/03/02 01:43:33;;;;;;;34.97;19.23;;;;;;;;;;5117339;28;20193;-63
2021/03/02 01:46:00;;;;;;;31.52;19.63;;;;;;;;;;5117389;28;20246;-64
2021/03/02 01:48:27;;;;;;;36.65;18.77;;;;;;;;;;5117444;28;20200;-62
2021/03/02 01:50:54;;;;;;;32.78;18.75;;;;;;;;;;5117435;28;20199;-63
2021/03/02 01:53:20;;;;;;;30.90;18.23;;;;;;;;;;5117250;28;20189;-63
2021/03/02 01:55:47;;;;;;;34.42;20.15;;;;;;;;;;5117463;28;20201;-62
2021/03/02 01:58:15;;;;;;;34.25;19.58;;;;;;;;;;5116798;28;20197;-63
2021/03/02 02:00:41;;;;;;;37.30;21.10;;;;;;;;;;5117758;28;20210;-62
2021/03/02 02:03:23;;;;;;;28.90;17.10;;;;;;;;;;5117352;28;20235;-63
2021/03/02 02:05:51;;;;;;;32.00;20.05;;;;;;;;;;5116668;28;20216;-63
2021/03/02 02:08:27;;;;;;;32.17;19.77;;;;;;;;;;5116939;28;20193;-62
2021/03/02 02:10:57;;;;;;;34.45;20.40;;;;;;;;;;5116973;28;20185;-62
2021/03/02 02:13:28;;;;;;;39.72;20.63;;;;;;;;;;5117170;28;20186;-62
2021/03/02 02:15:57;;;;;;;33.92;20.38;;;;;;;;;;5116774;28;20191;-62
2021/03/02 02:18:26;;;;;;;33.25;20.55;;;;;;;;;;5117067;28;20189;-62
2021/03/02 02:20:59;;;;;;;33.00;19.38;;;;;;;;;;5116420;28;20193;-63
2021/03/02 02:23:39;;;;;;;38.63;20.60;;;;;;;;;;5116721;28;20189;-63
2021/03/02 02:26:09;;;;;;;32.10;21.15;;;;;;;;;;5116363;28;20668;-63
2021/03/02 02:28:37;;;;;;;39.47;20.13;;;;;;;;;;5117020;28;20577;-62
2021/03/02 02:31:04;;;;;;;34.33;17.23;;;;;;;;;;5116195;28;20189;-63
2021/03/02 02:33:33;;;;;;;31.35;19.30;;;;;;;;;;5116227;28;20757;-62
2021/03/02 02:36:00;;;;;;;36.00;19.05;;;;;;;;;;5116320;28;20197;-63
2021/03/02 02:38:28;;;;;;;33.85;20.75;;;;;;;;;;5116043;28;20193;-63
2021/03/02 02:40:56;;;;;;;31.08;19.52;;;;;;;;;;5116030;28;20188;-62
2021/03/02 02:43:23;;;;;;;35.92;20.58;;;;;;;;;;5116572;28;20257;-63
2021/03/02 02:45:51;;;;;;;34.88;20.38;;;;;;;;;;5115884;28;20262;-62
2021/03/02 02:48:19;;;;;;;29.95;18.30;;;;;;;;;;5116202;28;20556;-62
2021/03/02 02:50:46;;;;;;;36.70;20.50;;;;;;;;;;5116789;28;20193;-62
2021/03/02 02:53:13;;;;;;;32.30;18.48;;;;;;;;;;5116614;28;20283;-62
2021/03/02 02:55:44;;;;;;;37.72;19.23;;;;;;;;;;5116472;28;20193;-62
2021/03/02 02:58:11;;;;;;;33.60;20.27;;;;;;;;;;5116330;28;20197;-62
2021/03/02 03:00:39;;;;;;;27.77;18.13;;;;;;;;;;5115972;28;20197;-63
2021/03/02 03:03:09;;;;;;;29.08;17.50;;;;;;;;;;5115678;28;20224;-63
2021/03/02 03:05:36;;;;;;;34.80;20.13;;;;;;;;;;5116302;28;20201;-63
2021/03/02 03:08:07;;;;;;;36.75;19.40;;;;;;;;;;5115707;28;20192;-63
2021/03/02 03:10:35;;;;;;;33.45;19.90;;;;;;;;;;5115713;28;20177;-62
2021/03/02 03:13:03;;;;;;;34.53;19.80;;;;;;;;;;5115693;28;20189;-63
2021/03/02 03:15:30;;;;;;;30.30;19.02;;;;;;;;;;5115634;28;20204;-63
2021/03/02 03:17:58;;;;;;;38.67;20.80;;;;;;;;;;5115314;28;20819;-63
2021/03/02 03:20:26;;;;;;;33.08;19.00;;;;;;;;;;5115760;28;20197;-63
2021/03/02 03:22:54;;;;;;;32.55;19.10;;;;;;;;;;5114884;28;20197;-62
2021/03/02 03:25:20;;;;;;;35.95;19.52;;;;;;;;;;5115031;28;20220;-62
2021/03/02 03:27:48;;;;;;;32.25;20.05;;;;;;;;;;5115391;28;20197;-63
2021/03/02 03:30:16;;;;;;;33.67;19.10;;;;;;;;;;5115040;28;20193;-62
2021/03/02 03:32:45;;;;;;;34.50;19.20;;;;;;;;;;5115534;28;20191;-63
2021/03/02 03:35:12;;;;;;;34.55;19.20;;;;;;;;;;5115262;28;20257;-63
2021/03/02 03:37:40;;;;;;;33.75;18.92;;;;;;;;;;5114867;28;20195;-63
2021/03/02 03:40:08;;;;;;;31.80;19.42;;;;;;;;;;5115311;28;20193;-62
2021/03/02 03:42:34;;;;;;;32.75;19.40;;;;;;;;;;5115059;28;20189;-63
2021/03/02 03:45:01;;;;;;;32.20;19.67;;;;;;;;;;5115078;28;20309;-63
2021/03/02 03:47:28;;;;;;;33.65;20.67;;;;;;;;;;5115277;28;20199;-63
2021/03/02 03:49:55;;;;;;;31.60;18.63;;;;;;;;;;5114660;28;20238;-64
2021/03/02 03:52:21;;;;;;;33.60;19.33;;;;;;;;;;5114634;28;20189;-63
2021/03/02 03:54:50;;;;;;;37.63;20.33;;;;;;;;;;5115163;28;20200;-63
2021/03/02 03:57:17;;;;;;;33.00;18.25;;;;;;;;;;5114826;28;20197;-63
2021/03/02 03:59:44;;;;;;;34.70;18.83;;;;;;;;;;5114508;28;20189;-63
2021/03/02 04:02:11;;;;;;;30.33;19.08;;;;;;;;;;5114679;28;20197;-63
2021/03/02 04:04:39;;;;;;;39.10;21.40;;;;;;;;;;5114984;28;20233;-63
2021/03/02 04:07:06;;;;;;;36.53;19.98;;;;;;;;;;5114797;28;20673;-63
2021/03/02 04:09:33;;;;;;;31.70;19.60;;;;;;;;;;5114636;28;20194;-62
2021/03/02 04:12:01;;;;;;;40.33;21.25;;;;;;;;;;5114259;28;20201;-63
2021/03/02 04:14:31;;;;;;;30.80;18.60;;;;;;;;;;5114521;28;20202;-62
2021/03/02 04:16:57;;;;;;;35.92;20.35;;;;;;;;;;5114526;28;20197;-63
2021/03/02 04:19:24;;;;;;;38.63;20.75;;;;;;;;;;5114461;28;20280;-63
2021/03/02 04:21:51;;;;;;;31.73;19.55;;;;;;;;;;5114438;28;20269;-63
2021/03/02 04:24:18;;;;;;;34.67;21.05;;;;;;;;;;5113961;28;20221;-62
2021/03/02 04:26:44;;;;;;;32.22;20.05;;;;;;;;;;5114039;28;20192;-63
2021/03/02 04:29:12;;;;;;;34.65;20.23;;;;;;;;;;5114004;28;20245;-63
2021/03/02 04:31:39;;;;;;;35.05;20.65;;;;;;;;;;5113925;28;20197;-63
2021/03/02 04:34:05;;;;;;;34.25;20.45;;;;;;;;;;5114132;28;20219;-63
2021/03/02 04:36:32;;;;;;;30.55;19.27;;;;;;;;;;5114281;28;20199;-62
2021/03/02 04:38:59;;;;;;;34.30;19.80;;;;;;;;;;5114182;28;20194;-63
2021/03/02 04:41:25;;;;;;;28.17;19.50;;;;;;;;;;5114642;28;20211;-63
2021/03/02 04:43:52;;;;;;;30.70;18.67;;;;;;;;;;5113696;28;20197;-63
2021/03/02 04:46:20;;;;;;;32.28;20.73;;;;;;;;;;5114146;28;20567;-62
2021/03/02 04:48:47;;;;;;;31.75;19.88;;;;;;;;;;5113803;28;20193;-63
2021/03/02 04:51:14;;;;;;;32.22;19.35;;;;;;;;;;5114048;28;20227;-63
2021/03/02 04:53:40;;;;;;;44.58;20.85;;;;;;;;;;5113728;28;20199;-62
2021/03/02 04:56:07;;;;;;;34.20;19.13;;;;;;;;;;5113979;28;20209;-62
2021/03/02 04:58:34;;;;;;;37.17;21.52;;;;;;;;;;5113995;28;20292;-62
2021/03/02 05:01:00;;;;;;;38.45;19.65;;;;;;;;;;5113924;28;20668;-62
2021/03/02 05:03:28;;;;;;;34.38;19.38;;;;;;;;;;5113792;28;20226;-62
2021/03/02 05:05:54;;;;;;;33.92;20.27;;;;;;;;;;5113837;28;20229;-62
2021/03/02 05:08:21;;;;;;;32.70;19.95;;;;;;;;;;5113910;28;20193;-63
2021/03/02 05:10:48;;;;;;;37.20;19.95;;;;;;;;;;5113533;28;20197;-63
2021/03/02 05:13:15;;;;;;;34.35;20.75;;;;;;;;;;5113829;28;20193;-62
2021/03/02 05:15:41;;;;;;;34.35;21.02;;;;;;;;;;5113781;28;20603;-63
2021/03/02 05:18:08;;;;;;;30.98;18.65;;;;;;;;;;5114127;28;20200;-63
2021/03/02 05:20:36;;;;;;;31.33;19.30;;;;;;;;;;5113447;28;20196;-62
2021/03/02 05:23:02;;;;;;;32.70;20.75;;;;;;;;;;5113949;28;20193;-63
2021/03/02 05:25:29;;;;;;;37.42;21.40;;;;;;;;;;5113818;28;20682;-63
2021/03/02 05:27:56;;;;;;;35.00;21.00;;;;;;;;;;5114113;28;20221;-62
2021/03/02 05:30:23;;;;;;;33.25;20.13;;;;;;;;;;5114055;28;20188;-62
2021/03/02 05:32:50;;;;;;;34.03;19.98;;;;;;;;;;5113686;28;20267;-62
2021/03/02 05:35:16;;;;;;;31.83;19.45;;;;;;;;;;5113705;28;20193;-62
2021/03/02 05:37:44;;;;;;;32.67;19.77;;;;;;;;;;5113379;28;20193;-64
2021/03/02 05:40:11;;;;;;;32.88;19.85;;;;;;;;;;5121055;28;20200;-63
2021/03/02 05:42:38;;;;;;;32.63;21.33;;;;;;;;;;5132820;28;20221;-63
2021/03/02 05:45:05;;;;;;;33.05;19.08;;;;;;;;;;5133820;27;20223;-63
2021/03/02 05:47:33;;;;;;;41.28;20.42;;;;;;;;;;5137700;27;20295;-63
2021/03/02 05:50:01;;;;;;;39.40;19.77;;;;;;;;;;5136768;27;20194;-63
2021/03/02 05:52:28;;;;;;;29.73;18.10;;;;;;;;;;5136852;27;20676;-63
2021/03/02 05:54:55;;;;;;;30.90;19.40;;;;;;;;;;5137097;27;20569;-63
2021/03/02 05:57:22;;;;;;;32.88;19.77;;;;;;;;;;5137380;27;20196;-62
2021/03/02 05:59:51;;;;;;;30.17;18.63;;;;;;;;;;5137332;27;20190;-63
2021/03/02 06:02:18;;;;;;;32.60;18.88;;;;;;;;;;5136712;27;20293;-65
2021/03/02 06:04:44;;;;;;;34.45;19.17;;;;;;;;;;5136847;27;20224;-62
2021/03/02 06:07:11;;;;;;;28.13;18.80;;;;;;;;;;5137219;27;20193;-62
2021/03/02 06:09:38;;;;;;;32.22;19.20;;;;;;;;;;5136926;27;20278;-63
2021/03/02 06:12:06;;;;;;;29.95;17.15;;;;;;;;;;5137099;27;20252;-63
2021/03/02 06:14:34;;;;;;;32.38;18.23;;;;;;;;;;5137411;27;20549;-62
2021/03/02 06:17:01;;;;;;;35.92;20.17;;;;;;;;;;5137151;27;20283;-63
2021/03/02 06:19:41;;;;;;;38.83;20.25;;;;;;;;;;5136935;27;20287;-63
2021/03/02 06:22:08;;;;;;;32.78;19.52;;;;;;;;;;5136756;27;20214;-63
2021/03/02 06:24:35;;;;;;;33.88;20.75;;;;;;;;;;5136843;27;20676;-63
2021/03/02 06:27:10;;;;;;;34.33;20.30;;;;;;;;;;5137183;27;20200;-63
2021/03/02 06:29:37;;;;;;;35.03;20.92;;;;;;;;;;5137182;27;20192;-62
2021/03/02 06:32:04;;;;;;;30.02;19.73;;;;;;;;;;5137191;27;20197;-63
2021/03/02 06:34:31;;;;;;;35.50;21.00;;;;;;;;;;5137246;27;20200;-62
2021/03/02 06:37:02;;;;;;;35.40;19.65;;;;;;;;;;5136914;27;20637;-63
2021/03/02 06:39:31;;;;;;;30.33;19.75;;;;;;;;;;5136779;27;20206;-62
2021/03/02 06:42:12;;;;;;;35.50;19.30;;;;;;;;;;5136841;27;20242;-62
2021/03/02 06:44:39;;;;;;;35.67;21.30;;;;;;;;;;5136844;27;20221;-62
2021/03/02 06:47:05;;;;;;;42.35;21.88;;;;;;;;;;5136574;27;20288;-62
2021/03/02 06:49:37;;;;;;;38.58;19.95;;;;;;;;;;5137322;27;20279;-62
2021/03/02 06:52:11;;;;;;;34.35;19.45;;;;;;;;;;5136600;27;20244;-63
2021/03/02 06:54:38;;;;;;;40.05;21.52;;;;;;;;;;5136616;27;20192;-62
2021/03/02 06:57:05;;;;;;;37.15;23.23;;;;;;;;;;5136088;27;20188;-63
2021/03/02 06:59:33;;;;;;;32.08;19.60;;;;;;;;;;5137025;27;20533;-62
2021/03/02 07:02:01;;;;;;;30.27;19.58;;;;;;;;;;5136584;27;20196;-62
2021/03/02 07:04:29;;;;;;;33.45;19.45;;;;;;;;;;5136188;27;20228;-63
2021/03/02 07:06:57;;;;;;;34.67;19.75;;;;;;;;;;5136856;27;20209;-63
2021/03/02 07:09:24;;;;;;;31.25;21.85;;;;;;;;;;5136417;27;20188;-62
2021/03/02 07:11:51;;;;;;;33.85;20.20;;;;;;;;;;5136950;27;20189;-62
2021/03/02 07:14:18;;;;;;;36.78;20.65;;;;;;;;;;5135814;27;20282;-63
2021/03/02 07:16:47;;;;;;;33.88;19.58;;;;;;;;;;5136326;27;20277;-62
2021/03/02 07:19:16;;;;;;;33.47;18.70;;;;;;;;;;5136009;27;20200;-62
2021/03/02 07:21:44;;;;;;;34.72;20.65;;;;;;;;;;5135728;27;20199;-62
2021/03/02 07:24:13;;;;;;;34.80;19.42;;;;;;;;;;5136408;27;20192;-63
2021/03/02 07:26:42;;;;;;;33.03;19.67;;;;;;;;;;5136748;27;20193;-62
2021/03/02 07:29:10;;;;;;;50.78;28.33;;;;;;;;;;5136287;27;20604;-62
2021/03/02 07:31:37;;;;;;;34.05;19.13;;;;;;;;;;5135407;27;20196;-62
2021/03/02 07:34:06;;;;;;;32.50;19.40;;;;;;;;;;5135369;27;20282;-62
2021/03/02 07:36:34;;;;;;;32.35;19.20;;;;;;;;;;5135629;27;20192;-62
2021/03/02 07:39:14;;;;;;;28.30;18.13;;;;;;;;;;5135926;27;20283;-62
2021/03/02 07:41:41;;;;;;;29.10;19.42;;;;;;;;;;5135230;27;20221;-62
2021/03/02 07:44:08;;;;;;;28.63;17.65;;;;;;;;;;5135903;27;20228;-63
2021/03/02 07:46:48;;;;;;;32.75;18.88;;;;;;;;;;5135252;27;20196;-63
2021/03/02 07:49:36;;;;;;;31.00;18.67;;;;;;;;;;5135755;27;20591;-63
2021/03/02 07:52:19;;;;;;;27.30;18.48;;;;;;;;;;5135374;27;20187;-62
2021/03/02 07:54:46;;;;;;;41.45;20.58;;;;;;;;;;5135077;27;20198;-62
2021/03/02 07:57:27;;;;;;;33.58;18.15;;;;;;;;;;5135410;27;20218;-63
2021/03/02 08:00:13;;;;;;;31.75;17.67;;;;;;;;;;5132449;27;20227;-62
2021/03/02 08:02:39;;;;;;;24.63;18.00;;;;;;;;;;5135487;27;20581;-63
2021/03/02 08:05:21;;;;;;;32.85;18.40;;;;;;;;;;5135250;27;20232;-63
2021/03/02 08:07:48;;;;;;;24.67;17.33;;;;;;;;;;5134197;27;20223;-63
2021/03/02 08:10:30;;;;;;;27.20;18.67;;;;;;;;;;5135212;27;20188;-63
2021/03/02 08:12:57;;;;;;;29.17;18.75;;;;;;;;;;5134362;27;20200;-63
2021/03/02 08:15:38;;;;;;;26.10;17.70;;;;;;;;;;5134989;27;20202;-63
2021/03/02 08:18:29;;;;;;;33.65;18.35;;;;;;;;;;5135428;27;20188;-63
2021/03/02 08:21:12;;;;;;;26.10;17.88;;;;;;;;;;5134778;27;20223;-62
2021/03/02 08:23:49;;;;;;;31.15;17.88;;;;;;;;;;5134590;27;20280;-63
2021/03/02 08:26:23;;;;;;;22.95;16.38;;;;;;;;;;5134406;27;20215;-63
2021/03/02 08:29:06;;;;;;;27.42;17.35;;;;;;;;;;5134914;27;20200;-62
2021/03/02 08:31:32;;;;;;;27.95;17.45;;;;;;;;;;5134441;27;20192;-62
2021/03/02 08:34:00;;;;;;;35.85;19.48;;;;;;;;;;5134320;27;20676;-62
2021/03/02 08:36:27;;;;;;;25.90;18.35;;;;;;;;;;5134266;27;20265;-62
2021/03/02 08:38:55;;;;;;;31.13;18.92;;;;;;;;;;5134620;27;20197;-62
2021/03/02 08:41:31;;;;;;;29.52;18.38;;;;;;;;;;5134241;27;20197;-63
2021/03/02 08:43:58;;;;;;;29.20;19.50;;;;;;;;;;5135330;27;20500;-63
2021/03/02 08:46:29;;;;;;;30.30;19.40;;;;;;;;;;5134441;27;20257;-62
2021/03/02 08:48:55;;;;;;;28.30;17.90;;;;;;;;;;5134815;27;20184;-62
2021/03/02 08:51:23;;;;;;;24.30;17.08;;;;;;;;;;5134144;27;20200;-63
2021/03/02 08:53:50;;;;;;;35.90;21.55;;;;;;;;;;5134480;27;20197;-62
2021/03/02 08:56:24;;;;;;;29.50;17.45;;;;;;;;;;5134118;27;20697;-63
2021/03/02 08:58:51;;;;;;;28.58;18.35;;;;;;;;;;5135022;28;20267;-62
2021/03/02 09:01:26;;;;;;;32.90;16.98;;;;;;;;;;5134944;28;20197;-63
2021/03/02 09:03:53;;;;;;;23.55;15.55;;;;;;;;;;5134118;28;20278;-64
2021/03/02 09:06:21;;;;;;;25.40;15.50;;;;;;;;;;5135156;28;20207;-63
2021/03/02 09:08:49;;;;;;;23.02;15.55;;;;;;;;;;5134342;28;20661;-63
2021/03/02 09:11:16;;;;;;;25.73;16.02;;;;;;;;;;5134299;28;20280;-63
2021/03/02 09:13:44;;;;;;;19.90;15.10;;;;;;;;;;5134271;28;20289;-64
2021/03/02 09:16:31;;;;;;;20.67;15.35;;;;;;;;;;5134009;28;20657;-63
2021/03/02 09:18:58;;;;;;;20.75;15.20;;;;;;;;;;5134374;27;20203;-63
2021/03/02 09:21:25;;;;;;;21.52;14.20;;;;;;;;;;5137226;27;20727;-63
2021/03/02 09:23:52;;;;;;;22.83;15.70;;;;;;;;;;5137988;27;20200;-63
2021/03/02 09:26:20;;;;;;;29.20;16.17;;;;;;;;;;5138226;27;20209;-64
2021/03/02 09:28:52;;;;;;;21.27;15.93;;;;;;;;;;5137913;27;20207;-63
2021/03/02 09:31:18;;;;;;;22.77;14.80;;;;;;;;;;5137895;27;20271;-63
2021/03/02 09:33:45;;;;;;;20.27;15.07;;;;;;;;;;5137749;27;20257;-63
2021/03/02 09:36:12;;;;;;;21.27;14.93;;;;;;;;;;5137602;27;20196;-62
2021/03/02 09:38:39;;;;;;;23.05;14.90;;;;;;;;;;5138483;27;20189;-62
2021/03/02 09:41:05;;;;;;;21.48;14.40;;;;;;;;;;5137958;27;20613;-62
2021/03/02 09:43:36;;;;;;;25.27;15.40;;;;;;;;;;5138269;27;20217;-62
2021/03/02 09:46:09;;;;;;;19.15;14.50;;;;;;;;;;5137464;27;20750;-63
2021/03/02 09:48:45;;;;;;;21.02;14.75;;;;;;;;;;5138260;27;20193;-63
2021/03/02 09:51:26;;;;;;;19.67;13.48;;;;;;;;;;5138103;27;20267;-62
2021/03/02 09:53:53;;;;;;;22.67;15.23;;;;;;;;;;5134533;27;20195;-62
2021/03/02 09:56:21;;;;;;;18.40;12.43;;;;;;;;;;5137438;27;20205;-62
2021/03/02 09:58:48;;;;;;;18.90;13.90;;;;;;;;;;5137334;27;20283;-62
2021/03/02 10:01:26;;;;;;;18.55;12.85;;;;;;;;;;5138032;27;20195;-63
2021/03/02 10:03:53;;;;;;;19.60;13.77;;;;;;;;;;5137575;27;20225;-62
2021/03/02 10:06:25;;;;;;;17.23;12.63;;;;;;;;;;5137643;27;20210;-62
2021/03/02 10:08:52;;;;;;;21.88;12.35;;;;;;;;;;5137159;27;20193;-62
2021/03/02 10:11:20;;;;;;;20.27;12.43;;;;;;;;;;5137114;27;20731;-62
2021/03/02 10:13:51;;;;;;;21.88;12.75;;;;;;;;;;5137263;27;20669;-62
2021/03/02 10:16:22;;;;;;;15.27;11.63;;;;;;;;;;5137902;27;20543;-64
2021/03/02 10:18:49;;;;;;;14.90;10.88;;;;;;;;;;5137531;27;20182;-63
2021/03/02 10:21:16;;;;;;;13.32;10.70;;;;;;;;;;5136798;27;20286;-63
2021/03/02 10:23:54;;;;;;;17.08;11.43;;;;;;;;;;5137551;27;20201;-63
2021/03/02 10:26:22;;;;;;;17.67;12.95;;;;;;;;;;5136578;27;20313;-63
2021/03/02 10:28:49;;;;;;;17.15;11.85;;;;;;;;;;5137203;27;20194;-62
2021/03/02 10:31:16;;;;;;;15.10;11.75;;;;;;;;;;5135836;27;20290;-62
2021/03/02 10:33:43;;;;;;;14.65;10.98;;;;;;;;;;5137240;27;20290;-62
2021/03/02 10:36:17;;;;;;;15.00;11.77;;;;;;;;;;5136975;27;20203;-63
2021/03/02 10:38:44;;;;;;;16.63;11.45;;;;;;;;;;5136842;27;20287;-63
2021/03/02 10:41:11;;;;;;;19.30;12.40;;;;;;;;;;5136595;27;20691;-63
2021/03/02 10:43:37;;;;;;;14.23;10.65;;;;;;;;;;5136853;27;20223;-63
2021/03/02 10:46:04;;;;;;;15.18;10.82;;;;;;;;;;5136814;27;20218;-63
2021/03/02 10:48:31;;;;;;;11.35;9.85;;;;;;;;;;5136884;27;20699;-63
2021/03/02 10:50:58;;;;;;;15.80;10.20;;;;;;;;;;5136602;27;20191;-62
2021/03/02 10:53:25;;;;;;;17.80;11.23;;;;;;;;;;5137290;27;20227;-63
2021/03/02 10:55:52;;;;;;;16.58;10.07;;;;;;;;;;5136054;27;20203;-63
2021/03/02 10:58:19;;;;;;;12.63;9.25;;;;;;;;;;5136680;27;20196;-62
2021/03/02 11:00:46;;;;;;;14.13;9.55;;;;;;;;;;5136926;27;20338;-62
2021/03/02 11:03:12;;;;;;;21.10;10.50;;;;;;;;;;5136319;27;20244;-63
2021/03/02 11:05:39;;;;;;;14.88;10.20;;;;;;;;;;5136451;27;20252;-63
2021/03/02 11:08:07;;;;;;;13.30;10.13;;;;;;;;;;5136631;27;20196;-62
2021/03/02 11:10:33;;;;;;;12.63;10.95;;;;;;;;;;5135847;27;20276;-65
2021/03/02 11:13:00;;;;;;;16.33;9.50;;;;;;;;;;5136367;27;20286;-63
2021/03/02 11:15:27;;;;;;;13.80;10.50;;;;;;;;;;5136253;27;20207;-63
2021/03/02 11:17:54;;;;;;;14.83;10.73;;;;;;;;;;5135807;27;20560;-62
2021/03/02 11:20:20;;;;;;;11.97;9.23;;;;;;;;;;5135963;27;20847;-62
2021/03/02 11:22:47;;;;;;;15.10;10.60;;;;;;;;;;5136037;27;20439;-63
2021/03/02 11:25:18;;;;;;;12.82;10.27;;;;;;;;;;5135855;27;20508;-64
2021/03/02 11:27:45;;;;;;;15.50;9.37;;;;;;;;;;5136202;27;20184;-63
2021/03/02 11:30:18;;;;;;;11.30;9.00;;;;;;;;;;5135390;27;20437;-63
2021/03/02 11:32:45;;;;;;;13.97;9.33;;;;;;;;;;5135748;27;20497;-63
2021/03/02 11:35:12;;;;;;;9.97;8.63;;;;;;;;;;5135628;27;20467;-63
2021/03/02 11:37:39;;;;;;;15.73;9.73;;;;;;;;;;5135557;27;20527;-63
2021/03/02 11:40:07;;;;;;;12.67;10.10;;;;;;;;;;5135505;27;20863;-63
2021/03/02 11:42:34;;;;;;;13.47;10.23;;;;;;;;;;5134159;27;20485;-63
2021/03/02 11:45:01;;;;;;;11.70;9.20;;;;;;;;;;5135007;27;20474;-63
2021/03/02 11:47:28;;;;;;;14.47;9.83;;;;;;;;;;5135248;27;20440;-63
2021/03/02 11:49:55;;;;;;;13.32;9.40;;;;;;;;;;5135318;27;20518;-63
2021/03/02 11:52:22;;;;;;;15.20;10.20;;;;;;;;;;5135161;27;20278;-63
2021/03/02 11:54:49;;;;;;;13.57;9.13;;;;;;;;;;5134809;27;20485;-62
2021/03/02 11:57:16;;;;;;;11.13;9.20;;;;;;;;;;5135158;27;20476;-63
2021/03/02 11:59:43;;;;;;;10.47;8.57;;;;;;;;;;5135136;27;20433;-63
2021/03/02 12:02:10;;;;;;;10.30;8.47;;;;;;;;;;5134726;27;20445;-63
2021/03/02 12:04:37;;;;;;;11.90;9.07;;;;;;;;;;5134900;27;20476;-63
2021/03/02 12:07:04;;;;;;;11.37;8.20;;;;;;;;;;5135293;27;20438;-63
2021/03/02 12:09:32;;;;;;;12.20;8.70;;;;;;;;;;5134395;27;20452;-63
2021/03/02 12:11:58;;;;;;;19.97;11.57;;;;;;;;;;5134822;27;20433;-63
2021/03/02 12:14:25;;;;;;;15.60;9.10;;;;;;;;;;5134352;27;20438;-63
2021/03/02 12:16:53;;;;;;;13.63;9.40;;;;;;;;;;5134714;27;20570;-63
2021/03/02 12:19:20;;;;;;;9.73;7.30;;;;;;;;;;5135147;27;20561;-63
2021/03/02 12:21:46;;;;;;;10.83;8.77;;;;;;;;;;5134730;27;20442;-63
2021/03/02 12:24:13;;;;;;;9.50;7.60;;;;;;;;;;5134415;27;20537;-63
2021/03/02 12:26:40;;;;;;;10.03;8.17;;;;;;;;;;5134574;27;20499;-63
2021/03/02 12:29:07;;;;;;;9.80;8.23;;;;;;;;;;5134299;27;20469;-63
2021/03/02 12:31:34;;;;;;;12.10;8.50;;;;;;;;;;5134569;27;20434;-63
2021/03/02 12:34:02;;;;;;;10.77;8.17;;;;;;;;;;5135112;27;20475;-63
2021/03/02 12:36:29;;;;;;;9.90;7.00;;;;;;;;;;5134469;27;20442;-63
2021/03/02 12:38:56;;;;;;;9.20;7.57;;;;;;;;;;5135149;27;20615;-64
2021/03/02 12:41:22;;;;;;;8.70;6.57;;;;;;;;;;5134416;27;20822;-63
2021/03/02 12:43:49;;;;;;;10.63;7.70;;;;;;;;;;5134077;27;20441;-63
2021/03/02 12:46:16;;;;;;;8.60;7.33;;;;;;;;;;5134541;27;20856;-62
2021/03/02 12:48:43;;;;;;;8.60;6.77;;;;;;;;;;5133868;27;20443;-63
2021/03/02 12:51:10;;;;;;;9.00;7.23;;;;;;;;;;5134261;27;20480;-62
2021/03/02 12:53:37;;;;;;;11.47;7.23;;;;;;;;;;5134471;27;20517;-63
2021/03/02 12:56:04;;;;;;;7.03;6.23;;;;;;;;;;5134561;27;20446;-63
2021/03/02 12:58:31;;;;;;;11.47;8.37;;;;;;;;;;5134281;27;20466;-64
2021/03/02 13:00:58;;;;;;;9.83;7.70;;;;;;;;;;5134182;28;20435;-63
2021/03/02 13:03:25;;;;;;;9.63;7.90;;;;;;;;;;5133643;28;21027;-64
2021/03/02 13:05:51;;;;;;;10.50;8.10;;;;;;;;;;5134182;28;20493;-63
2021/03/02 13:08:20;;;;;;;9.03;7.77;;;;;;;;;;5134104;28;20512;-63
2021/03/02 13:10:46;;;;;;;9.37;7.80;;;;;;;;;;5134226;28;20448;-63
2021/03/02 13:13:14;;;;;;;11.07;7.80;;;;;;;;;;5134019;28;20890;-63
2021/03/02 13:15:42;;;;;;;8.83;7.50;;;;;;;;;;5133690;28;20525;-63
2021/03/02 13:18:09;;;;;;;8.63;7.53;;;;;;;;;;5133858;28;20478;-63
2021/03/02 13:20:36;;;;;;;11.67;7.73;;;;;;;;;;5134258;28;20637;-64
2021/03/02 13:23:03;;;;;;;12.13;7.70;;;;;;;;;;5133587;28;20552;-63
2021/03/02 13:25:30;;;;;;;10.43;8.30;;;;;;;;;;5133863;28;20482;-63
2021/03/02 13:27:58;;;;;;;10.00;8.20;;;;;;;;;;5134117;28;20497;-63
2021/03/02 13:30:25;;;;;;;11.00;8.13;;;;;;;;;;5133505;28;20444;-62
2021/03/02 13:32:55;;;;;;;9.63;7.43;;;;;;;;;;5134631;28;20525;-63
2021/03/02 13:35:22;;;;;;;12.33;8.57;;;;;;;;;;5133527;28;20984;-62
2021/03/02 13:37:49;;;;;;;11.27;8.50;;;;;;;;;;5133586;28;20935;-63
2021/03/02 13:40:17;;;;;;;10.00;7.80;;;;;;;;;;5133500;28;20443;-63
2021/03/02 13:42:51;;;;;;;9.20;7.50;;;;;;;;;;5133808;28;20913;-63
2021/03/02 13:45:19;;;;;;;15.43;9.05;;;;;;;;;;5133155;28;20453;-62
2021/03/02 13:47:46;;;;;;;12.10;7.83;;;;;;;;;;5133990;28;20619;-63
2021/03/02 13:50:13;;;;;;;11.43;8.97;;;;;;;;;;5133825;28;20446;-63
2021/03/02 13:52:40;;;;;;;10.00;8.90;;;;;;;;;;5133751;28;20441;-63
2021/03/02 13:55:07;;;;;;;13.03;9.53;;;;;;;;;;5133906;28;20486;-63
2021/03/02 13:57:35;;;;;;;12.57;9.87;;;;;;;;;;5133365;28;20522;-63
2021/03/02 14:00:05;;;;;;;16.53;9.87;;;;;;;;;;5133377;28;20442;-63
2021/03/02 14:02:35;;;;;;;11.60;7.97;;;;;;;;;;5131994;28;20430;-63
2021/03/02 14:05:05;;;;;;;22.07;8.13;;;;;;;;;;5132989;27;20478;-63
2021/03/02 14:07:33;;;;;;;12.27;8.37;;;;;;;;;;5137412;27;20797;-64
2021/03/02 14:10:00;;;;;;;15.33;8.23;;;;;;;;;;5137332;27;20440;-64
2021/03/02 14:12:27;;;;;;;9.17;6.80;;;;;;;;;;5137548;27;20533;-64
2021/03/02 14:14:55;;;;;;;11.90;6.60;;;;;;;;;;5136870;27;20467;-63
2021/03/02 14:17:24;;;;;;;10.63;7.40;;;;;;;;;;5137225;27;20433;-63
2021/03/02 14:19:51;;;;;;;10.23;8.20;;;;;;;;;;5136947;27;20473;-64
2021/03/02 14:22:18;;;;;;;12.67;7.77;;;;;;;;;;5136519;27;20448;-63
2021/03/02 14:24:46;;;;;;;11.73;8.40;;;;;;;;;;5136570;27;20449;-63
2021/03/02 14:27:15;;;;;;;9.07;7.57;;;;;;;;;;5136988;27;20554;-63